sensor_id;sensor_type;location;lat;lon;timestamp;temperature;humidity
46890;DHT22;32625;51.080;16.970;2023-02-03T00:01:51;-0.90;99.90
46890;DHT22;32625;51.080;16.970;2023-02-03T00:04:18;-0.80;99.90
46890;DHT22;32625;51.080;16.970;2023-02-03T00:06:45;-0.80;99.90
46890;DHT22;32625;51.080;16.970;2023-02-03T00:09:13;-0.80;99.90
46890;DHT22;32625;51.080;16.970;2023-02-03T00:11:40;-0.80;99.90
46890;DHT22;32625;51.080;16.970;2023-02-03T00:14:07;-0.80;99.90
46890;DHT22;32625;51.080;16.970;2023-02-03T00:16:34;-0.80;99.90
46890;DHT22;32625;51.080;16.970;2023-02-03T00:19:01;-0.80;99.90
46890;DHT22;32625;51.080;16.970;2023-02-03T00:21:28;-0.80;99.90
46890;DHT22;32625;51.080;16.970;2023-02-03T00:23:55;-0.80;99.90
46890;DHT22;32625;51.080;16.970;2023-02-03T00:26:22;-0.70;99.90
46890;DHT22;32625;51.080;16.970;2023-02-03T00:28:51;-0.80;99.90
46890;DHT22;32625;51.080;16.970;2023-02-03T00:31:19;-0.80;99.90
46890;DHT22;32625;51.080;16.970;2023-02-03T00:33:47;-0.80;99.90
46890;DHT22;32625;51.080;16.970;2023-02-03T00:36:16;-0.80;99.90
46890;DHT22;32625;51.080;16.970;2023-02-03T00:38:43;-0.80;99.90
46890;DHT22;32625;51.080;16.970;2023-02-03T00:41:10;-0.80;99.90
46890;DHT22;32625;51.080;16.970;2023-02-03T00:43:37;-0.80;99.90
46890;DHT22;32625;51.080;16.970;2023-02-03T00:46:04;-0.80;99.90
46890;DHT22;32625;51.080;16.970;2023-02-03T00:48:31;-0.80;99.90
46890;DHT22;32625;51.080;16.970;2023-02-03T00:50:58;-0.80;99.90
46890;DHT22;32625;51.080;16.970;2023-02-03T00:53:25;-0.90;99.90
46890;DHT22;32625;51.080;16.970;2023-02-03T00:55:52;-0.90;99.90
46890;DHT22;32625;51.080;16.970;2023-02-03T00:58:19;-0.90;99.90
46890;DHT22;32625;51.080;16.970;2023-02-03T01:00:46;-0.90;99.90
46890;DHT22;32625;51.080;16.970;2023-02-03T01:03:13;-0.80;99.90
46890;DHT22;32625;51.080;16.970;2023-02-03T01:05:40;-0.90;99.90
46890;DHT22;32625;51.080;16.970;2023-02-03T01:08:07;-0.90;99.90
46890;DHT22;32625;51.080;16.970;2023-02-03T01:10:34;-0.90;99.90
46890;DHT22;32625;51.080;16.970;2023-02-03T01:13:03;-0.90;99.90
46890;DHT22;32625;51.080;16.970;2023-02-03T01:15:30;-0.90;99.90
46890;DHT22;32625;51.080;16.970;2023-02-03T01:17:56;-0.90;99.90
46890;DHT22;32625;51.080;16.970;2023-02-03T01:20:24;-0.90;99.90
46890;DHT22;32625;51.080;16.970;2023-02-03T01:22:51;-0.90;99.90
46890;DHT22;32625;51.080;16.970;2023-02-03T01:25:18;-0.90;99.90
46890;DHT22;32625;51.080;16.970;2023-02-03T01:27:45;-0.80;99.90
46890;DHT22;32625;51.080;16.970;2023-02-03T01:30:12;-0.80;99.90
46890;DHT22;32625;51.080;16.970;2023-02-03T01:32:39;-0.90;99.90
46890;DHT22;32625;51.080;16.970;2023-02-03T01:35:06;-0.80;99.90
46890;DHT22;32625;51.080;16.970;2023-02-03T01:37:33;-0.80;99.90
46890;DHT22;32625;51.080;16.970;2023-02-03T01:40:00;-0.80;99.90
46890;DHT22;32625;51.080;16.970;2023-02-03T01:42:31;-0.90;99.90
46890;DHT22;32625;51.080;16.970;2023-02-03T01:44:58;-0.80;99.90
46890;DHT22;32625;51.080;16.970;2023-02-03T01:47:30;-0.80;99.90
46890;DHT22;32625;51.080;16.970;2023-02-03T01:52:26;-0.80;99.90
46890;DHT22;32625;51.080;16.970;2023-02-03T01:54:55;-0.80;99.90
46890;DHT22;32625;51.080;16.970;2023-02-03T01:57:24;-0.80;99.90
46890;DHT22;32625;51.080;16.970;2023-02-03T01:59:53;-0.80;99.90
46890;DHT22;32625;51.080;16.970;2023-02-03T02:02:22;-0.70;99.90
46890;DHT22;32625;51.080;16.970;2023-02-03T02:07:16;-0.70;99.90
46890;DHT22;32625;51.080;16.970;2023-02-03T02:09:43;-0.70;99.90
46890;DHT22;32625;51.080;16.970;2023-02-03T02:12:11;-0.70;99.90
46890;DHT22;32625;51.080;16.970;2023-02-03T02:14:38;-0.70;99.90
46890;DHT22;32625;51.080;16.970;2023-02-03T02:17:10;-0.70;99.90
46890;DHT22;32625;51.080;16.970;2023-02-03T02:33:08;-0.60;99.90
46890;DHT22;32625;51.080;16.970;2023-02-03T02:38:12;-0.60;99.90
46890;DHT22;32625;51.080;16.970;2023-02-03T02:40:45;-0.50;99.90
46890;DHT22;32625;51.080;16.970;2023-02-03T02:45:48;-0.50;99.90
46890;DHT22;32625;51.080;16.970;2023-02-03T02:48:30;-0.50;99.90
46890;DHT22;32625;51.080;16.970;2023-02-03T02:50:58;-0.50;99.90
46890;DHT22;32625;51.080;16.970;2023-02-03T02:53:27;-0.50;99.90
46890;DHT22;32625;51.080;16.970;2023-02-03T02:55:55;-0.50;99.90
46890;DHT22;32625;51.080;16.970;2023-02-03T02:58:23;-0.40;99.90
46890;DHT22;32625;51.080;16.970;2023-02-03T03:00:50;-0.40;99.90
46890;DHT22;32625;51.080;16.970;2023-02-03T03:03:21;-0.40;99.90
46890;DHT22;32625;51.080;16.970;2023-02-03T03:05:53;-0.40;99.90
46890;DHT22;32625;51.080;16.970;2023-02-03T03:08:41;-0.40;99.90
46890;DHT22;32625;51.080;16.970;2023-02-03T03:11:10;-0.40;99.90
46890;DHT22;32625;51.080;16.970;2023-02-03T03:13:38;-0.40;99.90
46890;DHT22;32625;51.080;16.970;2023-02-03T03:16:07;-0.40;99.90
46890;DHT22;32625;51.080;16.970;2023-02-03T03:21:41;-0.30;99.90
46890;DHT22;32625;51.080;16.970;2023-02-03T03:24:09;-0.30;99.90
46890;DHT22;32625;51.080;16.970;2023-02-03T03:26:50;-0.20;99.90
46890;DHT22;32625;51.080;16.970;2023-02-03T03:29:19;-0.30;99.90
46890;DHT22;32625;51.080;16.970;2023-02-03T03:31:47;-0.20;99.90
46890;DHT22;32625;51.080;16.970;2023-02-03T03:34:15;-0.20;99.90
46890;DHT22;32625;51.080;16.970;2023-02-03T03:36:44;-0.20;99.90
46890;DHT22;32625;51.080;16.970;2023-02-03T03:41:51;-0.20;99.90
46890;DHT22;32625;51.080;16.970;2023-02-03T03:44:20;-0.20;99.90
46890;DHT22;32625;51.080;16.970;2023-02-03T03:46:50;-0.10;99.90
46890;DHT22;32625;51.080;16.970;2023-02-03T03:49:21;-0.10;99.90
46890;DHT22;32625;51.080;16.970;2023-02-03T03:51:50;-0.10;99.90
46890;DHT22;32625;51.080;16.970;2023-02-03T03:54:19;-0.10;99.90
46890;DHT22;32625;51.080;16.970;2023-02-03T03:56:53;-0.10;99.90
46890;DHT22;32625;51.080;16.970;2023-02-03T03:59:23;-0.10;99.90
46890;DHT22;32625;51.080;16.970;2023-02-03T04:01:51;-0.10;99.90
46890;DHT22;32625;51.080;16.970;2023-02-03T04:04:19;-0.10;99.90
46890;DHT22;32625;51.080;16.970;2023-02-03T04:06:46;-0.10;99.90
46890;DHT22;32625;51.080;16.970;2023-02-03T04:09:13;0.00;99.90
46890;DHT22;32625;51.080;16.970;2023-02-03T04:11:40;0.00;99.90
46890;DHT22;32625;51.080;16.970;2023-02-03T04:14:29;0.00;99.90
46890;DHT22;32625;51.080;16.970;2023-02-03T04:16:57;0.10;99.90
46890;DHT22;32625;51.080;16.970;2023-02-03T04:19:24;0.00;99.90
46890;DHT22;32625;51.080;16.970;2023-02-03T04:21:52;0.10;99.90
46890;DHT22;32625;51.080;16.970;2023-02-03T04:24:19;0.10;99.90
46890;DHT22;32625;51.080;16.970;2023-02-03T04:26:46;0.10;99.90
46890;DHT22;32625;51.080;16.970;2023-02-03T04:29:13;0.10;99.90
46890;DHT22;32625;51.080;16.970;2023-02-03T04:31:40;0.10;99.90
46890;DHT22;32625;51.080;16.970;2023-02-03T04:34:07;0.20;99.90
46890;DHT22;32625;51.080;16.970;2023-02-03T04:36:34;0.20;99.90
46890;DHT22;32625;51.080;16.970;2023-02-03T04:39:01;0.10;99.90
46890;DHT22;32625;51.080;16.970;2023-02-03T04:41:28;0.10;99.90
46890;DHT22;32625;51.080;16.970;2023-02-03T04:43:55;0.10;99.90
46890;DHT22;32625;51.080;16.970;2023-02-03T04:46:22;0.20;99.90
46890;DHT22;32625;51.080;16.970;2023-02-03T04:48:49;0.20;99.90
46890;DHT22;32625;51.080;16.970;2023-02-03T04:51:16;0.20;99.90
46890;DHT22;32625;51.080;16.970;2023-02-03T04:53:43;0.20;99.90
46890;DHT22;32625;51.080;16.970;2023-02-03T04:56:10;0.30;99.90
46890;DHT22;32625;51.080;16.970;2023-02-03T04:58:37;0.30;99.90
46890;DHT22;32625;51.080;16.970;2023-02-03T05:01:05;0.30;99.90
46890;DHT22;32625;51.080;16.970;2023-02-03T05:03:32;0.30;99.90
46890;DHT22;32625;51.080;16.970;2023-02-03T05:05:59;0.40;99.90
46890;DHT22;32625;51.080;16.970;2023-02-03T05:08:27;0.40;99.90
46890;DHT22;32625;51.080;16.970;2023-02-03T05:10:54;0.40;99.90
46890;DHT22;32625;51.080;16.970;2023-02-03T05:13:21;0.40;99.90
46890;DHT22;32625;51.080;16.970;2023-02-03T05:15:48;0.40;99.90
46890;DHT22;32625;51.080;16.970;2023-02-03T05:18:14;0.50;99.90
46890;DHT22;32625;51.080;16.970;2023-02-03T05:20:41;0.50;99.90
46890;DHT22;32625;51.080;16.970;2023-02-03T05:23:08;0.50;99.90
46890;DHT22;32625;51.080;16.970;2023-02-03T05:25:35;0.50;99.90
46890;DHT22;32625;51.080;16.970;2023-02-03T05:28:02;0.50;99.90
46890;DHT22;32625;51.080;16.970;2023-02-03T05:30:29;0.60;99.90
46890;DHT22;32625;51.080;16.970;2023-02-03T05:32:57;0.60;99.90
46890;DHT22;32625;51.080;16.970;2023-02-03T05:35:23;0.60;99.90
46890;DHT22;32625;51.080;16.970;2023-02-03T05:37:51;0.50;99.90
46890;DHT22;32625;51.080;16.970;2023-02-03T05:40:18;0.60;99.90
46890;DHT22;32625;51.080;16.970;2023-02-03T05:43:03;0.60;99.90
46890;DHT22;32625;51.080;16.970;2023-02-03T05:45:30;0.60;99.90
46890;DHT22;32625;51.080;16.970;2023-02-03T05:47:57;0.60;99.90
46890;DHT22;32625;51.080;16.970;2023-02-03T05:50:24;0.60;99.90
46890;DHT22;32625;51.080;16.970;2023-02-03T05:52:53;0.60;99.90
46890;DHT22;32625;51.080;16.970;2023-02-03T05:55:20;0.70;99.90
46890;DHT22;32625;51.080;16.970;2023-02-03T05:57:47;0.60;99.90
46890;DHT22;32625;51.080;16.970;2023-02-03T06:00:14;0.60;99.90
46890;DHT22;32625;51.080;16.970;2023-02-03T06:02:41;0.60;99.90
46890;DHT22;32625;51.080;16.970;2023-02-03T06:05:08;0.60;99.90
46890;DHT22;32625;51.080;16.970;2023-02-03T06:07:35;0.60;99.90
46890;DHT22;32625;51.080;16.970;2023-02-03T06:10:02;0.60;99.90
46890;DHT22;32625;51.080;16.970;2023-02-03T06:12:29;0.60;99.90
46890;DHT22;32625;51.080;16.970;2023-02-03T06:14:56;0.60;99.90
46890;DHT22;32625;51.080;16.970;2023-02-03T06:17:23;0.60;99.90
46890;DHT22;32625;51.080;16.970;2023-02-03T06:19:50;0.60;99.90
46890;DHT22;32625;51.080;16.970;2023-02-03T06:22:16;0.60;99.90
46890;DHT22;32625;51.080;16.970;2023-02-03T06:24:43;0.60;99.90
46890;DHT22;32625;51.080;16.970;2023-02-03T06:27:11;0.60;99.90
46890;DHT22;32625;51.080;16.970;2023-02-03T06:29:39;0.60;99.90
46890;DHT22;32625;51.080;16.970;2023-02-03T06:32:06;0.70;99.90
46890;DHT22;32625;51.080;16.970;2023-02-03T06:34:34;0.60;99.90
46890;DHT22;32625;51.080;16.970;2023-02-03T06:37:01;0.60;99.90
46890;DHT22;32625;51.080;16.970;2023-02-03T06:39:28;0.70;99.90
46890;DHT22;32625;51.080;16.970;2023-02-03T06:41:55;0.60;99.90
46890;DHT22;32625;51.080;16.970;2023-02-03T06:44:22;0.70;99.90
46890;DHT22;32625;51.080;16.970;2023-02-03T06:46:49;0.70;99.90
46890;DHT22;32625;51.080;16.970;2023-02-03T06:49:16;0.90;99.90
46890;DHT22;32625;51.080;16.970;2023-02-03T06:51:44;0.70;99.90
46890;DHT22;32625;51.080;16.970;2023-02-03T06:54:11;0.80;99.90
46890;DHT22;32625;51.080;16.970;2023-02-03T06:56:38;0.80;99.90
46890;DHT22;32625;51.080;16.970;2023-02-03T06:59:05;0.80;99.90
46890;DHT22;32625;51.080;16.970;2023-02-03T07:01:32;0.80;99.90
46890;DHT22;32625;51.080;16.970;2023-02-03T07:03:59;0.80;99.90
46890;DHT22;32625;51.080;16.970;2023-02-03T07:06:27;0.80;99.90
46890;DHT22;32625;51.080;16.970;2023-02-03T07:08:57;0.80;99.90
46890;DHT22;32625;51.080;16.970;2023-02-03T07:11:27;0.80;99.90
46890;DHT22;32625;51.080;16.970;2023-02-03T07:13:54;0.90;99.90
46890;DHT22;32625;51.080;16.970;2023-02-03T07:16:21;0.80;99.90
46890;DHT22;32625;51.080;16.970;2023-02-03T07:18:48;0.80;99.90
46890;DHT22;32625;51.080;16.970;2023-02-03T07:21:15;0.80;99.90
46890;DHT22;32625;51.080;16.970;2023-02-03T07:23:45;0.80;99.90
46890;DHT22;32625;51.080;16.970;2023-02-03T07:26:12;0.90;99.90
46890;DHT22;32625;51.080;16.970;2023-02-03T07:28:39;0.80;99.90
46890;DHT22;32625;51.080;16.970;2023-02-03T07:31:06;0.80;99.90
46890;DHT22;32625;51.080;16.970;2023-02-03T07:33:36;0.90;99.90
46890;DHT22;32625;51.080;16.970;2023-02-03T07:36:03;0.90;99.90
46890;DHT22;32625;51.080;16.970;2023-02-03T07:38:30;0.80;99.90
46890;DHT22;32625;51.080;16.970;2023-02-03T07:40:57;0.80;99.90
46890;DHT22;32625;51.080;16.970;2023-02-03T07:43:24;1.00;99.90
46890;DHT22;32625;51.080;16.970;2023-02-03T07:45:51;0.90;99.90
46890;DHT22;32625;51.080;16.970;2023-02-03T07:48:18;0.80;99.90
46890;DHT22;32625;51.080;16.970;2023-02-03T07:50:46;0.90;99.90
46890;DHT22;32625;51.080;16.970;2023-02-03T07:53:13;0.90;99.90
46890;DHT22;32625;51.080;16.970;2023-02-03T07:55:41;0.90;99.90
46890;DHT22;32625;51.080;16.970;2023-02-03T07:58:08;0.90;99.90
46890;DHT22;32625;51.080;16.970;2023-02-03T08:00:35;0.90;99.90
46890;DHT22;32625;51.080;16.970;2023-02-03T08:03:02;0.90;99.90
46890;DHT22;32625;51.080;16.970;2023-02-03T08:05:30;0.80;99.90
46890;DHT22;32625;51.080;16.970;2023-02-03T08:07:57;0.90;99.90
46890;DHT22;32625;51.080;16.970;2023-02-03T08:10:25;1.00;99.90
46890;DHT22;32625;51.080;16.970;2023-02-03T08:12:52;0.90;99.90
46890;DHT22;32625;51.080;16.970;2023-02-03T08:15:19;1.00;99.90
46890;DHT22;32625;51.080;16.970;2023-02-03T08:17:49;1.00;99.90
46890;DHT22;32625;51.080;16.970;2023-02-03T08:20:16;1.00;99.90
46890;DHT22;32625;51.080;16.970;2023-02-03T08:22:43;1.00;99.90
46890;DHT22;32625;51.080;16.970;2023-02-03T08:25:10;1.00;99.90
46890;DHT22;32625;51.080;16.970;2023-02-03T08:27:38;1.00;99.90
46890;DHT22;32625;51.080;16.970;2023-02-03T08:30:05;1.10;99.90
46890;DHT22;32625;51.080;16.970;2023-02-03T08:32:33;1.00;99.90
46890;DHT22;32625;51.080;16.970;2023-02-03T08:35:00;1.10;99.90
46890;DHT22;32625;51.080;16.970;2023-02-03T08:37:27;1.10;99.90
46890;DHT22;32625;51.080;16.970;2023-02-03T08:39:57;1.10;99.90
46890;DHT22;32625;51.080;16.970;2023-02-03T08:42:24;1.20;99.90
46890;DHT22;32625;51.080;16.970;2023-02-03T08:44:51;1.30;99.90
46890;DHT22;32625;51.080;16.970;2023-02-03T08:47:18;1.30;99.90
46890;DHT22;32625;51.080;16.970;2023-02-03T08:49:45;1.30;99.90
46890;DHT22;32625;51.080;16.970;2023-02-03T08:52:12;1.20;99.90
46890;DHT22;32625;51.080;16.970;2023-02-03T08:54:39;1.20;99.90
46890;DHT22;32625;51.080;16.970;2023-02-03T08:57:06;1.10;99.90
46890;DHT22;32625;51.080;16.970;2023-02-03T08:59:34;1.20;99.90
46890;DHT22;32625;51.080;16.970;2023-02-03T09:02:02;1.20;99.90
46890;DHT22;32625;51.080;16.970;2023-02-03T09:04:30;1.30;99.90
46890;DHT22;32625;51.080;16.970;2023-02-03T09:06:59;1.30;99.90
46890;DHT22;32625;51.080;16.970;2023-02-03T09:09:26;1.30;99.90
46890;DHT22;32625;51.080;16.970;2023-02-03T09:11:54;1.20;99.90
46890;DHT22;32625;51.080;16.970;2023-02-03T09:14:28;1.30;99.90
46890;DHT22;32625;51.080;16.970;2023-02-03T09:16:55;1.30;99.90
46890;DHT22;32625;51.080;16.970;2023-02-03T09:19:22;1.30;99.90
46890;DHT22;32625;51.080;16.970;2023-02-03T09:21:49;1.30;99.90
46890;DHT22;32625;51.080;16.970;2023-02-03T09:24:17;1.40;99.90
46890;DHT22;32625;51.080;16.970;2023-02-03T09:26:44;1.40;99.90
46890;DHT22;32625;51.080;16.970;2023-02-03T09:29:11;1.40;99.90
46890;DHT22;32625;51.080;16.970;2023-02-03T09:31:38;1.40;99.90
46890;DHT22;32625;51.080;16.970;2023-02-03T09:34:06;1.50;99.90
46890;DHT22;32625;51.080;16.970;2023-02-03T09:36:33;1.40;99.90
46890;DHT22;32625;51.080;16.970;2023-02-03T09:39:00;1.40;99.90
46890;DHT22;32625;51.080;16.970;2023-02-03T09:47:20;1.50;99.90
46890;DHT22;32625;51.080;16.970;2023-02-03T09:49:55;1.60;99.90
46890;DHT22;32625;51.080;16.970;2023-02-03T09:52:24;1.60;99.90
46890;DHT22;32625;51.080;16.970;2023-02-03T09:57:20;1.80;99.90
46890;DHT22;32625;51.080;16.970;2023-02-03T09:59:48;1.80;99.90
46890;DHT22;32625;51.080;16.970;2023-02-03T10:12:28;1.90;99.90
46890;DHT22;32625;51.080;16.970;2023-02-03T10:15:14;1.90;99.90
46890;DHT22;32625;51.080;16.970;2023-02-03T10:17:47;1.90;99.90
46890;DHT22;32625;51.080;16.970;2023-02-03T10:22:57;2.00;99.90
46890;DHT22;32625;51.080;16.970;2023-02-03T10:27:58;2.00;99.90
46890;DHT22;32625;51.080;16.970;2023-02-03T10:30:28;2.00;99.90
46890;DHT22;32625;51.080;16.970;2023-02-03T10:32:59;2.00;99.90
46890;DHT22;32625;51.080;16.970;2023-02-03T10:35:32;2.10;99.90
46890;DHT22;32625;51.080;16.970;2023-02-03T10:38:01;2.10;99.90
46890;DHT22;32625;51.080;16.970;2023-02-03T10:40:29;2.10;99.90
46890;DHT22;32625;51.080;16.970;2023-02-03T10:42:57;2.10;99.90
46890;DHT22;32625;51.080;16.970;2023-02-03T10:45:42;2.20;99.90
46890;DHT22;32625;51.080;16.970;2023-02-03T10:48:11;2.20;99.90
46890;DHT22;32625;51.080;16.970;2023-02-03T10:50:41;2.20;99.90
46890;DHT22;32625;51.080;16.970;2023-02-03T10:53:20;2.20;99.90
46890;DHT22;32625;51.080;16.970;2023-02-03T10:55:49;2.30;99.90
46890;DHT22;32625;51.080;16.970;2023-02-03T10:58:21;2.30;99.90
46890;DHT22;32625;51.080;16.970;2023-02-03T11:01:03;2.30;99.90
46890;DHT22;32625;51.080;16.970;2023-02-03T11:03:31;2.30;99.90
46890;DHT22;32625;51.080;16.970;2023-02-03T11:06:08;2.30;99.90
46890;DHT22;32625;51.080;16.970;2023-02-03T11:08:37;2.30;99.90
46890;DHT22;32625;51.080;16.970;2023-02-03T11:11:05;2.30;99.90
46890;DHT22;32625;51.080;16.970;2023-02-03T11:13:33;2.40;99.90
46890;DHT22;32625;51.080;16.970;2023-02-03T11:18:45;2.40;99.90
46890;DHT22;32625;51.080;16.970;2023-02-03T11:21:20;2.50;99.90
46890;DHT22;32625;51.080;16.970;2023-02-03T11:23:52;2.50;99.90
46890;DHT22;32625;51.080;16.970;2023-02-03T11:26:24;2.50;99.90
46890;DHT22;32625;51.080;16.970;2023-02-03T11:28:52;2.50;99.90
46890;DHT22;32625;51.080;16.970;2023-02-03T11:31:54;2.50;99.90
46890;DHT22;32625;51.080;16.970;2023-02-03T11:34:16;2.60;99.90
46890;DHT22;32625;51.080;16.970;2023-02-03T11:36:44;2.60;99.90
46890;DHT22;32625;51.080;16.970;2023-02-03T11:41:50;2.60;99.90
46890;DHT22;32625;51.080;16.970;2023-02-03T11:44:24;2.60;99.90
46890;DHT22;32625;51.080;16.970;2023-02-03T11:46:56;2.60;99.90
46890;DHT22;32625;51.080;16.970;2023-02-03T11:49:42;2.70;99.90
46890;DHT22;32625;51.080;16.970;2023-02-03T11:54:59;2.80;99.90
46890;DHT22;32625;51.080;16.970;2023-02-03T12:07:52;3.10;99.90
46890;DHT22;32625;51.080;16.970;2023-02-03T12:10:24;3.10;99.90
46890;DHT22;32625;51.080;16.970;2023-02-03T12:13:00;3.20;99.90
46890;DHT22;32625;51.080;16.970;2023-02-03T12:33:46;3.90;99.90
46890;DHT22;32625;51.080;16.970;2023-02-03T12:36:26;4.00;99.90
46890;DHT22;32625;51.080;16.970;2023-02-03T12:38:56;4.00;99.90
46890;DHT22;32625;51.080;16.970;2023-02-03T12:41:29;4.10;99.90
46890;DHT22;32625;51.080;16.970;2023-02-03T12:43:59;4.20;99.90
46890;DHT22;32625;51.080;16.970;2023-02-03T12:51:50;4.30;99.90
46890;DHT22;32625;51.080;16.970;2023-02-03T12:57:28;4.40;99.90
46890;DHT22;32625;51.080;16.970;2023-02-03T13:02:35;4.50;99.90
46890;DHT22;32625;51.080;16.970;2023-02-03T13:08:01;4.60;99.90
46890;DHT22;32625;51.080;16.970;2023-02-03T13:10:40;4.60;99.90
46890;DHT22;32625;51.080;16.970;2023-02-03T13:13:10;4.60;99.90
46890;DHT22;32625;51.080;16.970;2023-02-03T13:15:43;4.60;99.90
46890;DHT22;32625;51.080;16.970;2023-02-03T13:20:52;4.70;99.90
46890;DHT22;32625;51.080;16.970;2023-02-03T13:23:20;4.70;99.90
46890;DHT22;32625;51.080;16.970;2023-02-03T13:28:21;4.80;99.90
46890;DHT22;32625;51.080;16.970;2023-02-03T13:41:52;5.00;99.90
46890;DHT22;32625;51.080;16.970;2023-02-03T13:44:21;5.00;99.90
46890;DHT22;32625;51.080;16.970;2023-02-03T13:46:49;5.00;99.90
46890;DHT22;32625;51.080;16.970;2023-02-03T13:49:20;5.10;99.90
46890;DHT22;32625;51.080;16.970;2023-02-03T13:51:49;5.10;99.90
46890;DHT22;32625;51.080;16.970;2023-02-03T13:54:19;5.20;99.90
46890;DHT22;32625;51.080;16.970;2023-02-03T13:56:59;5.20;99.90
46890;DHT22;32625;51.080;16.970;2023-02-03T14:04:58;5.20;99.90
46890;DHT22;32625;51.080;16.970;2023-02-03T14:12:48;5.20;99.90
46890;DHT22;32625;51.080;16.970;2023-02-03T14:15:21;5.20;99.90
46890;DHT22;32625;51.080;16.970;2023-02-03T14:22:59;5.20;99.90
46890;DHT22;32625;51.080;16.970;2023-02-03T14:25:33;5.20;99.90
46890;DHT22;32625;51.080;16.970;2023-02-03T14:28:17;5.20;99.90
46890;DHT22;32625;51.080;16.970;2023-02-03T14:30:59;5.20;99.90
46890;DHT22;32625;51.080;16.970;2023-02-03T14:33:43;5.20;99.90
46890;DHT22;32625;51.080;16.970;2023-02-03T14:38:53;5.10;99.90
46890;DHT22;32625;51.080;16.970;2023-02-03T14:41:28;5.10;99.90
46890;DHT22;32625;51.080;16.970;2023-02-03T14:44:03;5.00;99.90
46890;DHT22;32625;51.080;16.970;2023-02-03T14:49:25;5.00;99.90
46890;DHT22;32625;51.080;16.970;2023-02-03T14:52:11;5.00;99.90
46890;DHT22;32625;51.080;16.970;2023-02-03T15:02:24;4.80;99.90
46890;DHT22;32625;51.080;16.970;2023-02-03T15:05:32;4.80;99.90
46890;DHT22;32625;51.080;16.970;2023-02-03T15:10:12;4.80;99.90
46890;DHT22;32625;51.080;16.970;2023-02-03T15:12:43;4.80;99.90
46890;DHT22;32625;51.080;16.970;2023-02-03T15:15:21;4.80;99.90
46890;DHT22;32625;51.080;16.970;2023-02-03T15:17:49;4.80;99.90
46890;DHT22;32625;51.080;16.970;2023-02-03T15:22:43;4.80;99.90
46890;DHT22;32625;51.080;16.970;2023-02-03T15:25:18;4.90;99.90
46890;DHT22;32625;51.080;16.970;2023-02-03T15:27:47;4.80;99.90
46890;DHT22;32625;51.080;16.970;2023-02-03T15:30:24;4.80;99.90
46890;DHT22;32625;51.080;16.970;2023-02-03T15:32:54;4.80;99.90
46890;DHT22;32625;51.080;16.970;2023-02-03T15:35:24;4.80;99.90
46890;DHT22;32625;51.080;16.970;2023-02-03T15:37:55;4.80;99.90
46890;DHT22;32625;51.080;16.970;2023-02-03T15:40:25;4.80;99.90
46890;DHT22;32625;51.080;16.970;2023-02-03T15:45:25;4.80;99.90
46890;DHT22;32625;51.080;16.970;2023-02-03T15:47:54;4.80;99.90
46890;DHT22;32625;51.080;16.970;2023-02-03T15:50:25;4.80;99.90
46890;DHT22;32625;51.080;16.970;2023-02-03T15:52:55;4.80;99.90
46890;DHT22;32625;51.080;16.970;2023-02-03T15:57:50;4.80;99.90
46890;DHT22;32625;51.080;16.970;2023-02-03T16:00:30;4.80;99.90
46890;DHT22;32625;51.080;16.970;2023-02-03T16:02:58;4.80;99.90
46890;DHT22;32625;51.080;16.970;2023-02-03T16:05:27;4.80;99.90
46890;DHT22;32625;51.080;16.970;2023-02-03T16:07:55;4.80;99.90
46890;DHT22;32625;51.080;16.970;2023-02-03T16:10:27;4.80;99.90
46890;DHT22;32625;51.080;16.970;2023-02-03T16:16:00;4.80;99.90
46890;DHT22;32625;51.080;16.970;2023-02-03T16:18:28;4.90;99.90
46890;DHT22;32625;51.080;16.970;2023-02-03T16:20:55;4.80;99.90
46890;DHT22;32625;51.080;16.970;2023-02-03T16:23:23;4.70;99.90
46890;DHT22;32625;51.080;16.970;2023-02-03T16:26:10;4.70;99.90
46890;DHT22;32625;51.080;16.970;2023-02-03T16:28:42;4.70;99.90
46890;DHT22;32625;51.080;16.970;2023-02-03T16:31:27;4.70;99.90
46890;DHT22;32625;51.080;16.970;2023-02-03T16:34:14;4.60;99.90
46890;DHT22;32625;51.080;16.970;2023-02-03T16:37:00;4.60;99.90
46890;DHT22;32625;51.080;16.970;2023-02-03T16:39:45;4.50;99.90
46890;DHT22;32625;51.080;16.970;2023-02-03T16:42:35;4.50;99.90
46890;DHT22;32625;51.080;16.970;2023-02-03T16:45:24;4.40;99.90
46890;DHT22;32625;51.080;16.970;2023-02-03T16:48:10;4.40;99.90
46890;DHT22;32625;51.080;16.970;2023-02-03T16:50:55;4.40;99.90
46890;DHT22;32625;51.080;16.970;2023-02-03T16:53:26;4.40;99.90
46890;DHT22;32625;51.080;16.970;2023-02-03T16:55:54;4.40;99.90
46890;DHT22;32625;51.080;16.970;2023-02-03T16:58:21;4.40;99.90
46890;DHT22;32625;51.080;16.970;2023-02-03T17:00:49;4.40;99.90
46890;DHT22;32625;51.080;16.970;2023-02-03T17:03:21;4.30;99.90
46890;DHT22;32625;51.080;16.970;2023-02-03T17:05:49;4.40;99.90
46890;DHT22;32625;51.080;16.970;2023-02-03T17:08:17;4.40;99.90
46890;DHT22;32625;51.080;16.970;2023-02-03T17:10:45;4.30;99.90
46890;DHT22;32625;51.080;16.970;2023-02-03T17:13:13;4.30;99.90
46890;DHT22;32625;51.080;16.970;2023-02-03T17:15:42;4.30;99.90
46890;DHT22;32625;51.080;16.970;2023-02-03T17:18:10;4.30;99.90
46890;DHT22;32625;51.080;16.970;2023-02-03T17:20:37;4.30;99.90
46890;DHT22;32625;51.080;16.970;2023-02-03T17:23:04;4.30;99.90
46890;DHT22;32625;51.080;16.970;2023-02-03T17:25:32;4.30;99.90
46890;DHT22;32625;51.080;16.970;2023-02-03T17:28:02;4.30;99.90
46890;DHT22;32625;51.080;16.970;2023-02-03T17:30:29;4.30;99.90
46890;DHT22;32625;51.080;16.970;2023-02-03T17:33:01;4.30;99.90
46890;DHT22;32625;51.080;16.970;2023-02-03T17:35:28;4.30;99.90
46890;DHT22;32625;51.080;16.970;2023-02-03T17:37:56;4.40;99.90
46890;DHT22;32625;51.080;16.970;2023-02-03T17:40:23;4.40;99.90
46890;DHT22;32625;51.080;16.970;2023-02-03T17:43:08;4.30;99.90
46890;DHT22;32625;51.080;16.970;2023-02-03T17:45:52;4.40;99.90
46890;DHT22;32625;51.080;16.970;2023-02-03T17:48:37;4.30;99.90
46890;DHT22;32625;51.080;16.970;2023-02-03T17:51:21;4.30;99.90
46890;DHT22;32625;51.080;16.970;2023-02-03T17:54:09;4.30;99.90
46890;DHT22;32625;51.080;16.970;2023-02-03T17:56:36;4.30;99.90
46890;DHT22;32625;51.080;16.970;2023-02-03T17:59:04;4.30;99.90
46890;DHT22;32625;51.080;16.970;2023-02-03T18:01:31;4.30;99.90
46890;DHT22;32625;51.080;16.970;2023-02-03T18:04:02;4.30;99.90
46890;DHT22;32625;51.080;16.970;2023-02-03T18:06:29;4.30;99.90
46890;DHT22;32625;51.080;16.970;2023-02-03T18:08:57;4.30;99.90
46890;DHT22;32625;51.080;16.970;2023-02-03T18:11:27;4.30;99.90
46890;DHT22;32625;51.080;16.970;2023-02-03T18:13:54;4.20;99.90
46890;DHT22;32625;51.080;16.970;2023-02-03T18:16:23;4.20;99.90
46890;DHT22;32625;51.080;16.970;2023-02-03T18:18:55;4.30;99.90
46890;DHT22;32625;51.080;16.970;2023-02-03T18:21:22;4.20;99.90
46890;DHT22;32625;51.080;16.970;2023-02-03T18:23:49;4.20;99.90
46890;DHT22;32625;51.080;16.970;2023-02-03T18:26:17;4.30;99.90